createdAt,value
2019-01-14T00:00:00.659Z,-5.5
2019-01-14T00:00:50.929Z,-5.5
2019-01-14T00:01:40.984Z,-5.5
2019-01-14T00:02:30.766Z,-5.6
2019-01-14T00:03:20.826Z,-5.6
2019-01-14T00:04:11.156Z,-5.6
2019-01-14T00:05:01.304Z,-5.6
2019-01-14T00:05:51.265Z,-5.6
2019-01-14T00:06:41.333Z,-5.5
2019-01-14T00:07:31.388Z,-5.6
2019-01-14T00:08:21.176Z,-5.6
2019-01-14T00:09:11.512Z,-5.6
2019-01-14T00:10:01.501Z,-5.6
2019-01-14T00:10:51.605Z,-5.7
2019-01-14T00:11:41.671Z,-5.8
2019-01-14T00:12:31.441Z,-5.8
2019-01-14T00:13:21.506Z,-5.8
2019-01-14T00:14:11.824Z,-5.8
2019-01-14T00:15:01.630Z,-5.8
2019-01-14T00:15:51.668Z,-5.8
2019-01-14T00:16:42.073Z,-5.8
2019-01-14T00:17:31.790Z,-5.9
2019-01-14T00:18:22.120Z,-5.8
2019-01-14T00:19:12.173Z,-5.8
2019-01-14T00:20:01.789Z,-5.8
2019-01-14T00:20:52.273Z,-5.8
2019-01-14T00:21:42.063Z,-5.8
2019-01-14T00:22:31.835Z,-5.7
2019-01-14T00:23:22.510Z,-5.7
2019-01-14T00:24:12.535Z,-5.7
2019-01-14T00:25:02.690Z,-5.8
2019-01-14T00:25:52.619Z,-5.8
2019-01-14T00:26:42.677Z,-5.7
2019-01-14T00:27:32.729Z,-5.7
2019-01-14T00:28:22.786Z,-5.7
2019-01-14T00:29:12.857Z,-5.8
2019-01-14T00:30:02.917Z,-5.8
2019-01-14T00:30:52.970Z,-5.8
2019-01-14T00:31:43.012Z,-5.9
2019-01-14T00:32:33.832Z,-5.9
2019-01-14T00:33:23.144Z,-5.9
2019-01-14T00:34:13.185Z,-5.9
2019-01-14T00:35:03.261Z,-6
2019-01-14T00:35:53.039Z,-6.1
2019-01-14T00:36:43.079Z,-6
2019-01-14T00:37:33.416Z,-6
2019-01-14T00:38:23.486Z,-6
2019-01-14T00:39:13.521Z,-6
2019-01-14T00:40:03.594Z,-6.1
2019-01-14T00:40:53.429Z,-6
2019-01-14T00:41:43.731Z,-6
2019-01-14T00:42:33.746Z,-6
2019-01-14T00:43:23.264Z,-6
2019-01-14T00:44:13.873Z,-6
2019-01-14T00:45:03.678Z,-6.1
2019-01-14T00:45:53.993Z,-6.1
2019-01-14T00:46:44.036Z,-6.3
2019-01-14T00:47:34.081Z,-6.4
2019-01-14T00:48:24.138Z,-6.1
2019-01-14T00:49:14.218Z,-6
2019-01-14T00:50:03.993Z,-6.1
2019-01-14T00:50:54.311Z,-6.1
2019-01-14T00:51:44.111Z,-6.1
2019-01-14T00:52:34.421Z,-6.2
2019-01-14T00:53:24.515Z,-6.1
2019-01-14T00:54:14.555Z,-6.1
2019-01-14T00:55:04.328Z,-5.9
2019-01-14T00:55:54.658Z,-5.8
2019-01-14T00:56:44.712Z,-5.9
2019-01-14T00:57:34.765Z,-5.7
2019-01-14T00:58:24.553Z,-5.7
2019-01-14T00:59:14.598Z,-5.8
2019-01-14T01:00:04.666Z,-5.8
2019-01-14T01:00:54.997Z,-5.8
2019-01-14T01:01:45.047Z,-5.9
2019-01-14T01:02:35.120Z,-5.9
2019-01-14T01:03:24.885Z,-5.8
2019-01-14T01:04:15.225Z,-5.6
2019-01-14T01:05:05.026Z,-5.7
2019-01-14T01:05:55.337Z,-5.7
2019-01-14T01:06:45.122Z,-5.6
2019-01-14T01:07:34.890Z,-5.6
2019-01-14T01:08:25.232Z,-5.5
2019-01-14T01:09:14.997Z,-5.8
2019-01-14T01:10:05.665Z,-5.6
2019-01-14T01:10:55.119Z,-5.8
2019-01-14T01:11:45.180Z,-5.7
2019-01-14T01:12:35.499Z,-5.6
2019-01-14T01:13:25.627Z,-5.6
2019-01-14T01:14:15.899Z,-5.6
2019-01-14T01:15:05.962Z,-5.6
2019-01-14T01:15:55.724Z,-5.8
2019-01-14T01:16:46.067Z,-5.8
2019-01-14T01:17:36.131Z,-5.9
2019-01-14T01:18:26.169Z,-5.9
2019-01-14T01:19:16.216Z,-5.9
2019-01-14T01:20:05.457Z,-5.9
2019-01-14T01:20:56.064Z,-5.9
2019-01-14T01:21:46.399Z,-5.9
2019-01-14T01:22:36.453Z,-5.9
2019-01-14T01:23:26.249Z,-6
2019-01-14T01:24:16.294Z,-6
2019-01-14T01:25:06.626Z,-5.9
2019-01-14T01:25:56.119Z,-5.9
2019-01-14T01:26:46.790Z,-5.9
2019-01-14T01:27:36.518Z,-6
2019-01-14T01:28:26.851Z,-6
2019-01-14T01:29:16.903Z,-5.9
2019-01-14T01:30:06.689Z,-5.9
2019-01-14T01:30:57.016Z,-5.9
2019-01-14T01:31:46.801Z,-5.9
2019-01-14T01:32:36.858Z,-5.9
2019-01-14T01:33:27.201Z,-5.9
2019-01-14T01:34:17.030Z,-5.9
2019-01-14T01:35:07.294Z,-5.9
2019-01-14T01:35:57.093Z,-6.1
2019-01-14T01:36:47.412Z,-6.1
2019-01-14T01:37:37.473Z,-6.1
2019-01-14T01:38:27.283Z,-6.1
2019-01-14T01:39:17.313Z,-6.1
2019-01-14T01:40:07.360Z,-6
2019-01-14T01:40:57.467Z,-6
2019-01-14T01:41:47.491Z,-5.9
2019-01-14T01:42:37.810Z,-5.9
2019-01-14T01:43:27.592Z,-5.9
2019-01-14T01:44:17.915Z,-5.9
2019-01-14T01:45:07.973Z,-5.8
2019-01-14T01:45:58.087Z,-5.8
2019-01-14T01:46:47.533Z,-5.8
2019-01-14T01:47:37.869Z,-5.8
2019-01-14T01:48:28.207Z,-5.9
2019-01-14T01:49:17.987Z,-6.1
2019-01-14T01:50:08.040Z,-6.1
2019-01-14T01:50:58.374Z,-6.2
2019-01-14T01:51:48.429Z,-6.2
2019-01-14T01:52:38.555Z,-6.2
2019-01-14T01:53:28.547Z,-6.1
2019-01-14T01:54:18.331Z,-5.9
2019-01-14T01:55:08.119Z,-6
2019-01-14T03:08:46.707Z,-6.7
2019-01-14T03:09:36.759Z,-6.7
2019-01-14T03:10:26.830Z,-6.8
2019-01-14T03:11:16.601Z,-6.8
2019-01-14T03:12:06.436Z,-6.8
2019-01-14T03:12:57.002Z,-6.8
2019-01-14T03:13:46.767Z,-6.9
2019-01-14T03:14:37.131Z,-7
2019-01-14T03:15:27.149Z,-7
2019-01-14T03:16:17.204Z,-6.9
2019-01-14T03:17:07.287Z,-6.8
2019-01-14T03:17:57.056Z,-6.6
2019-01-14T03:18:47.367Z,-6.8
2019-01-14T03:19:37.439Z,-6.8
2019-01-14T03:20:27.496Z,-6.8
2019-01-14T03:21:17.556Z,-6.6
2019-01-14T03:22:07.624Z,-6.6
2019-01-14T03:22:57.661Z,-6.5
2019-01-14T03:23:47.754Z,-6.4
2019-01-14T03:24:37.766Z,-6.4
2019-01-14T03:25:27.580Z,-6.5
2019-01-14T03:26:17.907Z,-6.5
2019-01-14T03:27:07.968Z,-6.6
2019-01-14T03:27:58.006Z,-6.5
2019-01-14T03:28:47.772Z,-6.5
2019-01-14T03:29:38.116Z,-6.6
2019-01-14T03:30:28.248Z,-6.5
2019-01-14T03:31:18.277Z,-6.5
2019-01-14T03:32:08.349Z,-6.6
2019-01-14T03:32:57.869Z,-6.6
2019-01-14T03:33:48.405Z,-6.7
2019-01-14T03:34:38.457Z,-6.6
2019-01-14T03:35:28.217Z,-6.6
2019-01-14T03:36:18.559Z,-6.5
2019-01-14T03:37:08.731Z,-6.5
2019-01-14T03:37:58.671Z,-6.4
2019-01-14T03:38:48.732Z,-6.4
2019-01-14T03:39:38.508Z,-6.4
2019-01-14T03:40:28.559Z,-6.4
2019-01-14T03:41:18.622Z,-6.4
2019-01-14T03:42:09.022Z,-6.5
2019-01-14T03:42:59.015Z,-6.6
2019-01-14T03:43:48.820Z,-6.7
2019-01-14T03:44:38.582Z,-6.8
2019-01-14T03:45:29.197Z,-6.8
2019-01-14T03:46:19.225Z,-6.7
2019-01-14T03:47:09.331Z,-6.6
2019-01-14T03:47:59.339Z,-6.6
2019-01-14T03:48:49.412Z,-6.5
2019-01-14T03:49:39.179Z,-6.5
2019-01-14T03:50:28.805Z,-6.4
2019-01-14T03:51:19.289Z,-6.5
2019-01-14T03:52:09.635Z,-6.5
2019-01-14T03:52:59.494Z,-6.5
2019-01-14T03:53:49.742Z,-6.5
2019-01-14T03:54:39.789Z,-6.5
2019-01-14T03:55:29.326Z,-6.6
2019-01-14T03:56:19.924Z,-6.7
2019-01-14T03:57:09.989Z,-6.8
2019-01-14T03:57:59.519Z,-6.8
2019-01-14T03:58:49.803Z,-6.8
2019-01-14T03:59:39.619Z,-6.9
2019-01-14T04:00:30.206Z,-6.9
2019-01-14T04:01:19.960Z,-6.9
2019-01-14T04:02:10.321Z,-6.9
2019-01-14T04:03:00.564Z,-7
2019-01-14T04:03:50.463Z,-7.1
2019-01-14T04:04:40.223Z,-7.1
2019-01-14T04:05:30.530Z,-7.1
2019-01-14T04:06:20.324Z,-7.1
2019-01-14T04:07:16.681Z,-7.1
2019-01-14T04:08:00.413Z,-7.1
2019-01-14T04:08:50.785Z,-7.1
2019-01-14T04:09:40.820Z,-7.1
2019-01-14T04:10:30.590Z,-7.2
2019-01-14T04:11:20.663Z,-7.1
2019-01-14T04:12:10.988Z,-7.1
2019-01-14T04:13:01.026Z,-7.1
2019-01-14T04:13:50.885Z,-7.1
2019-01-14T04:14:40.320Z,-6.9
2019-01-14T04:15:30.936Z,-6.8
2019-01-14T04:16:21.258Z,-6.8
2019-01-14T04:17:11.332Z,-6.8
2019-01-14T04:18:01.392Z,-6.8
2019-01-14T04:18:51.152Z,-6.8
2019-01-14T04:19:41.489Z,-6.9
2019-01-14T04:20:31.257Z,-6.9
2019-01-14T04:21:21.673Z,-6.8
2019-01-14T04:22:11.656Z,-6.7
2019-01-14T04:23:03.434Z,-6.8
2019-01-14T04:23:51.510Z,-6.9
2019-01-14T04:24:41.843Z,-7.1
2019-01-14T04:25:32.099Z,-7.1
2019-01-14T04:26:21.666Z,-7.1
2019-01-14T04:27:12.011Z,-7.1
2019-01-14T04:28:02.081Z,-6.9
2019-01-14T04:28:52.121Z,-6.9
2019-01-14T04:29:42.169Z,-6.9
2019-01-14T04:30:32.226Z,-6.9
2019-01-14T04:31:22.061Z,-6.7
2019-01-14T04:32:12.051Z,-6.7
2019-01-14T04:33:02.109Z,-6.7
2019-01-14T04:33:52.442Z,-6.7
2019-01-14T04:34:42.519Z,-6.7
2019-01-14T04:35:32.271Z,-6.7
2019-01-14T04:36:22.376Z,-6.6
2019-01-14T04:37:12.397Z,-6.5
2019-01-14T04:38:02.457Z,-6.5
2019-01-14T04:38:52.774Z,-6.5
2019-01-14T04:39:42.833Z,-6.6
2019-01-14T04:40:32.651Z,-6.6
2019-01-14T04:41:22.968Z,-6.8
2019-01-14T04:42:12.735Z,-6.8
2019-01-14T04:43:02.832Z,-6.7
2019-01-14T04:43:52.575Z,-6.6
2019-01-14T04:44:43.167Z,-6.5
2019-01-14T04:45:32.985Z,-6.7
2019-01-14T04:46:23.021Z,-6.9
2019-01-14T04:47:13.063Z,-6.8
2019-01-14T04:48:03.433Z,-6.8
2019-01-14T04:48:53.456Z,-6.8
2019-01-14T04:49:43.526Z,-6.8
2019-01-14T04:50:33.133Z,-6.8
2019-01-14T04:51:23.341Z,-6.8
2019-01-14T04:52:13.423Z,-6.7
2019-01-14T04:53:03.224Z,-6.4
2019-01-14T04:53:53.800Z,-6.6
2019-01-14T04:54:43.845Z,-6.8
2019-01-14T04:55:33.070Z,-6.9
2019-01-14T04:56:23.958Z,-6.9
2019-01-14T04:57:13.495Z,-7
2019-01-14T04:58:04.108Z,-6.9
2019-01-14T04:58:54.130Z,-6.9
2019-01-14T04:59:43.910Z,-6.8
2019-01-14T05:00:33.971Z,-6.8
2019-01-14T05:01:24.327Z,-6.9
2019-01-14T05:02:14.455Z,-7
2019-01-14T05:03:04.415Z,-7
2019-01-14T05:03:54.207Z,-6.9
2019-01-14T05:04:44.255Z,-6.9
2019-01-14T05:05:34.590Z,-6.9
2019-01-14T05:06:24.432Z,-6.8
2019-01-14T05:07:14.402Z,-6.9
2019-01-14T05:08:04.772Z,-6.9
2019-01-14T05:08:54.817Z,-6.9
2019-01-14T05:09:44.610Z,-6.8
2019-01-14T05:10:34.417Z,-6.8
2019-01-14T05:11:24.959Z,-6.8
2019-01-14T05:12:14.804Z,-6.9
2019-01-14T05:13:04.828Z,-6.9
2019-01-14T05:13:55.129Z,-6.8
2019-01-14T05:14:44.670Z,-6.7
2019-01-14T05:15:34.973Z,-6.6
2019-01-14T05:16:25.317Z,-6.7
2019-01-14T05:17:15.101Z,-6.7
2019-01-14T05:18:05.145Z,-6.6
2019-01-14T05:18:55.194Z,-6.3
2019-01-14T05:19:45.526Z,-6.1
2019-01-14T05:20:35.593Z,-6.1
2019-01-14T05:21:25.646Z,-6.2
2019-01-14T05:22:15.732Z,-6.1
2019-01-14T05:23:05.214Z,-6.2
2019-01-14T05:23:55.552Z,-6.4
2019-01-14T05:24:45.592Z,-6.5
2019-01-14T05:25:35.949Z,-6.4
2019-01-14T05:26:25.982Z,-6.3
2019-01-14T05:27:16.044Z,-6.3
2019-01-14T05:28:05.827Z,-6.3
2019-01-14T05:28:55.584Z,-6.3
2019-01-14T05:29:46.192Z,-6.3
2019-01-14T05:30:36.262Z,-6.4
2019-01-14T05:31:26.044Z,-6.4
2019-01-14T05:32:16.382Z,-6.4
2019-01-14T05:33:06.246Z,-6.5
2019-01-14T05:33:56.196Z,-6.6
2019-01-14T05:34:46.539Z,-6.7
2019-01-14T05:35:36.319Z,-6.6
2019-01-14T05:36:26.414Z,-6.8
2019-01-14T05:37:16.715Z,-6.9
2019-01-14T05:38:06.503Z,-6.9
2019-01-14T05:38:56.824Z,-7
2019-01-14T05:39:46.879Z,-7.1
2019-01-14T05:40:36.767Z,-7.3
2019-01-14T05:41:26.984Z,-7.2
2019-01-14T05:42:16.767Z,-7.2
2019-01-14T05:43:07.084Z,-7.3
2019-01-14T05:43:56.596Z,-7.4
2019-01-14T05:44:47.221Z,-7.4
2019-01-14T05:45:37.007Z,-7.4
2019-01-14T05:46:27.308Z,-7.4
2019-01-14T05:47:16.832Z,-7.4
2019-01-14T05:48:07.540Z,-7.3
2019-01-14T05:48:57.488Z,-7.3
2019-01-14T05:49:47.545Z,-7.3
2019-01-14T05:50:37.408Z,-7.4
2019-01-14T05:51:27.373Z,-7.4
2019-01-14T05:52:17.445Z,-7.3
2019-01-14T05:53:07.764Z,-7.4
2019-01-14T05:53:57.815Z,-7.5
2019-01-14T05:54:47.879Z,-7.5
2019-01-14T05:55:37.931Z,-7.5
2019-01-14T05:56:27.707Z,-7.6
2019-01-14T05:57:17.801Z,-7.6
2019-01-14T05:58:08.121Z,-7.6
2019-01-14T05:58:58.155Z,-7.6
2019-01-14T05:59:48.220Z,-7.6
2019-01-14T06:00:38.008Z,-7.6
2019-01-14T06:01:28.060Z,-7.6
2019-01-14T06:02:18.365Z,-7.7
2019-01-14T06:03:08.439Z,-7.6
2019-01-14T06:03:58.519Z,-7.6
2019-01-14T06:04:48.534Z,-7.4
2019-01-14T06:06:46.539Z,-7.1
2019-01-14T06:07:36.607Z,-7.3
2019-01-14T06:08:26.734Z,-7.3
2019-01-14T06:09:16.475Z,-7.2
2019-01-14T06:10:06.793Z,-7.2
2019-01-14T06:10:56.839Z,-7.2
2019-01-14T06:11:46.887Z,-7.3
2019-01-14T06:12:36.959Z,-7.3
2019-01-14T06:13:27.022Z,-7.3
2019-01-14T06:14:17.044Z,-7.4
2019-01-14T06:15:07.150Z,-7.4
2019-01-14T06:15:56.695Z,-7.3
2019-01-14T06:16:46.731Z,-7.1
2019-01-14T06:17:36.791Z,-6.9
2019-01-14T06:18:26.848Z,-7
2019-01-14T06:19:16.894Z,-6.9
2019-01-14T06:20:06.948Z,-6.9
2019-01-14T06:20:56.724Z,-6.9
2019-01-14T06:21:47.066Z,-6.9
2019-01-14T06:22:36.896Z,-6.8
2019-01-14T06:23:27.179Z,-6.7
2019-01-14T06:24:16.979Z,-6.6
2019-01-14T06:25:07.351Z,-6.4
2019-01-14T06:25:57.411Z,-6.3
2019-01-14T06:26:47.404Z,-6.3
2019-01-14T06:27:37.446Z,-6.2
2019-01-14T06:28:27.006Z,-6.2
2019-01-14T06:29:17.293Z,-6.1
2019-01-14T06:30:07.621Z,-6
2019-01-14T06:30:57.390Z,-5.9
2019-01-14T06:31:47.455Z,-5.7
2019-01-14T06:32:37.527Z,-5.6
2019-01-14T06:33:27.853Z,-5.5
2019-01-14T06:34:17.934Z,-5.4
2019-01-14T06:35:08.181Z,-5.3
2019-01-14T06:35:59.716Z,-5.2
2019-01-14T06:36:48.077Z,-5.1
2019-01-14T06:37:38.595Z,-5.1
2019-01-14T06:38:28.230Z,-5
2019-01-14T06:39:18.239Z,-5
2019-01-14T06:40:08.510Z,-5
2019-01-14T06:40:58.346Z,-4.9
2019-01-14T06:41:48.875Z,-4.9
2019-01-14T06:42:38.457Z,-4.8
2019-01-14T06:43:28.982Z,-4.8
2019-01-14T06:44:19.111Z,-4.6
2019-01-14T06:45:09.108Z,-4.6
2019-01-14T06:45:59.166Z,-4.6
2019-01-14T06:46:48.737Z,-4.6
2019-01-14T06:47:38.995Z,-4.5
2019-01-14T06:48:28.775Z,-4.5
2019-01-14T06:49:18.909Z,-4.6
2019-01-14T06:50:08.954Z,-4.5
2019-01-14T06:50:59.014Z,-4.5
2019-01-14T06:51:48.796Z,-4.4
2019-01-14T06:52:39.126Z,-4.4
2019-01-14T06:53:29.190Z,-4.4
2019-01-14T06:54:18.961Z,-4.4
2019-01-14T06:55:09.297Z,-4.3
2019-01-14T06:55:59.352Z,-4.4
2019-01-14T06:56:49.409Z,-4.4
2019-01-14T06:57:39.478Z,-4.3
2019-01-14T06:58:29.514Z,-4.3
2019-01-14T06:59:19.579Z,-4.3
2019-01-14T07:00:09.091Z,-4.4
2019-01-14T07:00:59.721Z,-4.4
2019-01-14T07:01:49.742Z,-4.4
2019-01-14T07:02:39.550Z,-4.4
2019-01-14T07:03:29.580Z,-4.4
2019-01-14T07:04:19.925Z,-4.4
2019-01-14T07:06:46.015Z,-4.3
2019-01-14T07:07:35.586Z,-4.3
2019-01-14T07:08:25.842Z,-4.1
2019-01-14T07:09:16.174Z,-4.1
2019-01-14T07:10:05.961Z,-4.1
2019-01-14T07:10:56.281Z,-4.2
2019-01-14T07:11:46.350Z,-4.1
2019-01-14T07:12:36.397Z,-4.1
2019-01-14T07:13:26.454Z,-4
2019-01-14T07:14:16.515Z,-3.9
2019-01-14T07:15:06.286Z,-3.9
2019-01-14T07:15:56.634Z,-4
2019-01-14T07:16:46.466Z,-3.9
2019-01-14T07:17:36.741Z,-3.9
2019-01-14T07:18:26.789Z,-3.9
2019-01-14T07:19:16.861Z,-3.9
2019-01-14T07:20:06.906Z,-4.1
2019-01-14T07:20:56.972Z,-4.1
2019-01-14T07:21:47.013Z,-4.3
2019-01-14T07:22:37.073Z,-4.3
2019-01-14T07:23:27.341Z,-4.3
2019-01-14T07:24:17.681Z,-4.3
2019-01-14T07:25:07.716Z,-4.3
2019-01-14T07:25:57.776Z,-4.3
2019-01-14T07:26:47.842Z,-4.1
2019-01-14T07:27:37.418Z,-4
2019-01-14T07:28:27.941Z,-3.9
2019-01-14T07:30:07.298Z,-3.6
2019-01-14T07:30:58.118Z,-3.6
2019-01-14T07:31:47.683Z,-3.4
2019-01-14T07:32:38.288Z,-3.4
2019-01-14T07:33:28.280Z,-3.4
2019-01-14T07:34:18.347Z,-3.3
2019-01-14T07:35:08.133Z,-3.3
2019-01-14T07:35:58.460Z,-3.3
2019-01-14T07:36:48.503Z,-3.4
2019-01-14T07:37:38.548Z,-3.4
2019-01-14T07:38:28.607Z,-3.4
2019-01-14T07:39:18.387Z,-3.4
2019-01-14T07:40:08.752Z,-3.4
2019-01-14T07:40:58.502Z,-3.4
2019-01-14T07:41:48.833Z,-3.4
2019-01-14T07:42:38.897Z,-3.3
2019-01-14T07:43:28.965Z,-3.4
2019-01-14T07:44:19.058Z,-3.3
2019-01-14T07:45:08.815Z,-3.3
2019-01-14T07:45:58.915Z,-3.3
2019-01-14T07:46:49.192Z,-3.2
2019-01-14T07:47:38.747Z,-3.1
2019-01-14T07:48:29.287Z,-3.1
2019-01-14T07:49:19.344Z,-3
2019-01-14T07:50:09.404Z,-2.9
2019-01-14T07:50:59.454Z,-2.8
2019-01-14T07:51:49.277Z,-2.8
2019-01-14T07:52:39.303Z,-2.8
2019-01-14T07:53:29.346Z,-2.9
2019-01-14T07:54:19.697Z,-2.8
2019-01-14T07:55:09.767Z,-2.8
2019-01-14T07:55:59.566Z,-2.8
2019-01-14T07:56:49.851Z,-2.7
2019-01-14T07:57:39.911Z,-2.8
2019-01-14T07:58:29.961Z,-2.8
2019-01-14T07:59:20.026Z,-2.8
2019-01-14T08:00:09.853Z,-2.6
2019-01-14T08:00:59.849Z,-2.5
2019-01-14T08:01:49.911Z,-2.4
2019-01-14T08:02:40.249Z,-2.3
2019-01-14T08:03:30.313Z,-2.3
2019-01-14T08:04:20.363Z,-2.3
2019-01-14T08:05:09.868Z,-2.1
2019-01-14T08:06:00.518Z,-2
2019-01-14T08:06:50.536Z,-1.9
2019-01-14T08:07:40.633Z,-1.8
2019-01-14T08:08:30.635Z,-1.7
2019-01-14T08:09:20.695Z,-1.5
2019-01-14T08:10:10.741Z,-1.6
2019-01-14T08:11:00.811Z,-1.6
2019-01-14T08:11:50.862Z,-1.6
2019-01-14T08:12:40.978Z,-1.7
2019-01-14T08:13:30.680Z,-1.9
2019-01-14T08:14:21.043Z,-1.9
2019-01-14T08:15:10.813Z,-1.8
2019-01-14T08:16:00.915Z,-1.9
2019-01-14T08:16:51.254Z,-1.8
2019-01-14T08:17:41.247Z,-1.8
2019-01-14T08:18:31.300Z,-2
2019-01-14T08:19:20.818Z,-1.8
2019-01-14T08:20:11.415Z,-1.5
2019-01-14T08:21:01.472Z,-1.3
2019-01-14T08:21:51.249Z,-1.5
2019-01-14T08:22:41.600Z,-1.5
2019-01-14T08:23:31.630Z,-1.4
2019-01-14T08:24:21.747Z,-1.4
2019-01-14T08:25:11.749Z,-1.4
2019-01-14T08:26:01.867Z,-1.4
2019-01-14T08:26:51.854Z,-1.3
2019-01-14T08:28:31.978Z,-0.8
2019-01-14T08:29:22.033Z,-0.7
2019-01-14T08:30:12.147Z,-0.8
2019-01-14T08:31:02.188Z,-0.8
2019-01-14T08:31:52.202Z,-1
2019-01-14T08:33:32.337Z,-0.8
2019-01-14T08:34:22.374Z,-0.6
2019-01-14T08:35:12.431Z,-0.5
2019-01-14T08:36:02.245Z,-0.3
2019-01-14T08:36:52.541Z,-0.2
2019-01-14T08:37:42.612Z,-0.2
2019-01-14T08:38:32.645Z,-0.1
2019-01-14T08:39:22.491Z,-0.1
2019-01-14T08:40:12.212Z,-0.1
2019-01-14T08:41:02.539Z,-0.1
2019-01-14T08:41:52.601Z,-0.1
2019-01-14T08:42:42.929Z,-0.1
2019-01-14T08:43:33.008Z,0.1
2019-01-14T08:44:23.040Z,0
2019-01-14T08:45:12.841Z,0.1
2019-01-14T08:46:03.186Z,0
2019-01-14T08:46:53.268Z,0
2019-01-14T08:47:43.273Z,0.1
2019-01-14T08:49:46.185Z,0.1
2019-01-14T08:49:57.463Z,0.3
2019-01-14T08:50:47.710Z,0.3
2019-01-14T08:51:37.488Z,0.4
2019-01-14T08:52:26.871Z,0.4
2019-01-14T08:53:17.883Z,0.6
2019-01-14T08:54:07.670Z,0.5
2019-01-14T08:54:58.005Z,0.6
2019-01-14T08:55:48.052Z,0.6
2019-01-14T08:56:37.545Z,0.6
2019-01-14T08:57:28.160Z,0.6
2019-01-14T08:58:18.213Z,0.7
2019-01-14T08:59:08.000Z,0.6
2019-01-14T08:59:58.369Z,0.6
2019-01-14T09:00:48.107Z,0.7
2019-01-14T09:01:38.160Z,0.8
2019-01-14T09:02:28.487Z,0.6
2019-01-14T09:03:18.540Z,0.8
2019-01-14T09:04:08.603Z,0.8
2019-01-14T09:04:58.655Z,0.9
2019-01-14T09:05:48.760Z,0.8
2019-01-14T09:06:38.767Z,0.7
2019-01-14T09:07:28.559Z,0.7
2019-01-14T09:08:18.340Z,0.8
2019-01-14T09:09:08.934Z,0.9
2019-01-14T09:09:59.002Z,0.8
2019-01-14T09:10:49.042Z,0.9
2019-01-14T09:11:39.108Z,0.8
2019-01-14T09:12:28.894Z,0.8
2019-01-14T09:13:18.936Z,0.9
2019-01-14T09:14:09.269Z,0.9
2019-01-14T09:14:59.327Z,0.9
2019-01-14T09:15:50.338Z,1.1
2019-01-14T09:16:39.451Z,1
2019-01-14T09:17:29.209Z,0.9
2019-01-14T09:18:18.982Z,1
2019-01-14T09:19:09.615Z,1.1
2019-01-14T09:19:59.659Z,1.1
2019-01-14T09:20:49.446Z,1.2
2019-01-14T09:21:39.782Z,1.1
2019-01-14T09:22:29.279Z,1.1
2019-01-14T09:23:19.883Z,0.9
2019-01-14T09:24:10.031Z,1
2019-01-14T09:24:59.998Z,1.1
2019-01-14T09:25:56.746Z,0.9
2019-01-14T09:26:40.227Z,1
2019-01-14T09:27:30.171Z,0.9
2019-01-14T09:28:19.661Z,1.1
2019-01-14T09:29:10.273Z,1.3
2019-01-14T09:30:00.411Z,1.4
2019-01-14T09:30:50.128Z,1.4
2019-01-14T09:31:40.180Z,1.4
2019-01-14T09:32:30.506Z,1.3
2019-01-14T09:33:20.310Z,1.1
2019-01-14T09:34:10.342Z,1.1
2019-01-14T09:35:00.753Z,1
2019-01-14T09:35:50.730Z,0.9
2019-01-14T09:36:40.782Z,1
2019-01-14T09:37:30.360Z,1.1
2019-01-14T09:38:20.180Z,1.1
2019-01-14T09:39:10.480Z,1.1
2019-01-14T09:40:01.045Z,1.1
2019-01-14T09:40:51.117Z,1.3
2019-01-14T09:41:40.845Z,1.3
2019-01-14T09:42:30.882Z,1.3
2019-01-14T09:43:21.224Z,1.3
2019-01-14T09:44:11.017Z,1.3
2019-01-14T09:45:01.354Z,1.1
2019-01-14T09:45:50.842Z,1.2
2019-01-14T09:46:41.463Z,1.4
2019-01-14T09:47:31.500Z,1.4
2019-01-14T09:48:21.571Z,1.6
2019-01-14T09:49:11.619Z,1.6
2019-01-14T09:50:01.427Z,1.6
2019-01-14T09:50:51.467Z,1.5
2019-01-14T09:51:41.797Z,1.5
2019-01-14T09:52:31.854Z,1.6
2019-01-14T09:53:21.929Z,1.8
2019-01-14T09:54:11.969Z,1.9
2019-01-14T09:55:07.179Z,1.9
2019-01-14T09:55:51.789Z,2.1
2019-01-14T09:56:42.119Z,2
2019-01-14T09:57:31.906Z,2.1
2019-01-14T09:58:22.254Z,2.1
2019-01-14T09:59:12.289Z,2.2
2019-01-14T10:00:02.433Z,2.3
2019-01-14T10:00:52.407Z,2.4
2019-01-14T10:01:42.453Z,2.4
2019-01-14T10:02:32.076Z,2.4
2019-01-14T10:03:21.816Z,2.4
2019-01-14T10:04:11.803Z,2.5
2019-01-14T10:05:02.474Z,2.5
2019-01-14T10:07:46.331Z,2.6
2019-01-14T10:08:42.833Z,2.5
2019-01-14T10:09:26.167Z,2.6
2019-01-14T10:10:16.535Z,2.6
2019-01-14T10:11:06.271Z,2.6
2019-01-14T10:11:56.331Z,2.7
2019-01-14T10:12:46.390Z,2.8
2019-01-14T10:13:36.707Z,2.7
2019-01-14T10:14:26.770Z,2.8
2019-01-14T10:15:16.555Z,2.8
2019-01-14T10:16:06.888Z,2.6
2019-01-14T10:16:56.940Z,2.6
2019-01-14T10:17:47.013Z,2.6
2019-01-14T10:18:37.048Z,2.6
2019-01-14T10:19:27.117Z,2.7
2019-01-14T10:20:17.164Z,2.7
2019-01-14T10:21:06.945Z,2.6
2019-01-14T10:21:57.280Z,2.8
2019-01-14T10:22:47.387Z,2.8
2019-01-14T10:23:37.389Z,2.9
2019-01-14T10:24:27.517Z,2.9
2019-01-14T10:25:17.503Z,2.8
2019-01-14T10:26:07.557Z,2.7
2019-01-14T10:26:57.329Z,2.8
2019-01-14T10:27:47.679Z,2.7
2019-01-14T10:28:37.722Z,2.7
2019-01-14T10:29:27.784Z,2.8
2019-01-14T10:30:17.579Z,2.8
2019-01-14T10:31:07.897Z,2.8
2019-01-14T10:31:57.664Z,2.9
2019-01-14T10:32:48.015Z,2.8
2019-01-14T10:33:38.082Z,2.8
2019-01-14T10:34:27.676Z,2.8
2019-01-14T10:35:17.697Z,2.8
2019-01-14T10:36:08.225Z,2.8
2019-01-14T10:36:58.280Z,2.7
2019-01-14T10:37:48.085Z,2.8
2019-01-14T10:38:38.130Z,2.7
2019-01-14T10:39:27.917Z,2.7
2019-01-14T10:40:18.870Z,2.7
2019-01-14T10:41:08.350Z,2.8
2019-01-14T10:41:58.332Z,2.8
2019-01-14T10:42:48.672Z,2.8
2019-01-14T10:43:38.734Z,2.9
2019-01-14T10:44:28.785Z,3.1
2019-01-14T10:45:18.851Z,3.1
2019-01-14T10:46:08.892Z,3.2
2019-01-14T10:46:59.020Z,3.2
2019-01-14T10:47:49.022Z,3.2
2019-01-14T10:48:39.128Z,3.1
2019-01-14T10:49:29.146Z,3.2
2019-01-14T10:50:18.670Z,3.2
2019-01-14T10:51:08.957Z,3.2
2019-01-14T10:51:59.024Z,3.3
2019-01-14T10:52:49.410Z,3.2
2019-01-14T10:53:39.403Z,3.2
2019-01-14T10:54:29.462Z,3.2
2019-01-14T10:55:19.539Z,3.2
2019-01-14T10:56:09.574Z,3.2
2019-01-14T10:56:59.682Z,3.1
2019-01-14T10:57:49.419Z,3.1
2019-01-14T10:58:39.747Z,3.1
2019-01-14T10:59:29.044Z,3
2019-01-14T11:00:19.871Z,3
2019-01-14T11:01:09.971Z,3
2019-01-14T11:01:59.692Z,3
2019-01-14T11:02:50.888Z,3
2019-01-14T11:03:40.081Z,3.1
2019-01-14T11:04:30.139Z,3.1
2019-01-14T11:05:20.182Z,3.1
2019-01-14T11:06:10.266Z,2.9
2019-01-14T11:06:59.821Z,2.9
2019-01-14T11:07:50.422Z,2.9
2019-01-14T11:08:40.420Z,2.8
2019-01-14T11:09:30.471Z,2.8
2019-01-14T11:10:20.526Z,2.8
2019-01-14T11:11:10.313Z,2.8
2019-01-14T11:12:00.363Z,2.8
2019-01-14T11:12:50.745Z,2.8
2019-01-14T11:13:40.470Z,2.8
2019-01-14T11:14:30.805Z,2.8
2019-01-14T11:15:20.873Z,2.8
2019-01-14T11:16:10.917Z,2.8
2019-01-14T11:17:00.978Z,2.8
2019-01-14T11:17:51.028Z,2.7
2019-01-14T11:18:41.089Z,2.6
2019-01-14T11:19:31.137Z,2.6
2019-01-14T11:20:20.998Z,2.6
2019-01-14T11:21:15.653Z,2.5
2019-01-14T11:22:01.027Z,2.4
2019-01-14T11:22:51.362Z,2.3
2019-01-14T11:23:41.432Z,2.3
2019-01-14T11:24:31.476Z,2.2
2019-01-14T11:25:21.539Z,2.2
2019-01-14T11:26:11.580Z,2.1
2019-01-14T11:27:01.637Z,2.1
2019-01-14T11:27:51.430Z,2.1
2019-01-14T11:28:41.529Z,2.2
2019-01-14T11:29:31.802Z,2.3
2019-01-14T11:30:21.914Z,2.2
2019-01-14T11:31:11.934Z,2.2
2019-01-14T11:32:01.982Z,2.2
2019-01-14T11:32:52.046Z,2.3
2019-01-14T11:33:41.952Z,2.3
2019-01-14T11:34:32.136Z,2.3
2019-01-14T11:35:22.208Z,2.3
2019-01-14T11:36:12.276Z,2.3
2019-01-14T11:37:02.054Z,2.3
2019-01-14T11:37:52.382Z,2.3
2019-01-14T11:38:42.430Z,2.3
2019-01-14T11:39:32.488Z,2.2
2019-01-14T11:40:22.271Z,2.1
2019-01-14T11:41:12.662Z,2.1
2019-01-14T11:42:02.369Z,2.1
2019-01-14T11:42:52.719Z,2.1
2019-01-14T11:43:42.774Z,2.1
2019-01-14T11:44:32.821Z,2.1
2019-01-14T11:45:22.886Z,2.1
2019-01-14T11:46:12.934Z,2.1
2019-01-14T11:47:02.511Z,2.2
2019-01-14T11:47:52.768Z,2.1
2019-01-14T11:48:42.834Z,2.2
2019-01-14T11:49:33.153Z,2.3
2019-01-14T11:50:22.968Z,2.3
2019-01-14T11:51:13.268Z,2.2
2019-01-14T11:52:03.084Z,2.2
2019-01-14T11:52:53.404Z,2.1
2019-01-14T11:53:43.431Z,2.1
2019-01-14T11:54:33.499Z,2.1
2019-01-14T11:55:22.999Z,2.1
2019-01-14T11:56:13.330Z,2.1
2019-01-14T11:57:03.733Z,2.1
2019-01-14T11:57:53.718Z,2.1
2019-01-14T11:58:43.491Z,2.1
2019-01-14T11:59:33.936Z,2.1
2019-01-14T12:00:23.593Z,2.2
2019-01-14T12:01:13.954Z,2.2
2019-01-14T12:02:04.005Z,2.2
2019-01-14T12:02:54.120Z,2.2
2019-01-14T12:03:43.845Z,2.2
2019-01-14T12:04:33.895Z,2.3
2019-01-14T12:05:24.275Z,2.3
2019-01-14T12:07:46.180Z,2.2
2019-01-14T12:08:50.647Z,2.2
2019-01-14T12:09:26.375Z,2.2
2019-01-14T12:10:16.100Z,2.1
2019-01-14T12:11:06.937Z,2.1
2019-01-14T12:11:55.659Z,2.2
2019-01-14T12:12:45.790Z,2.3
2019-01-14T12:13:36.367Z,2.3
2019-01-14T12:14:26.369Z,2.3
2019-01-14T12:15:16.710Z,2.3
2019-01-14T12:16:05.959Z,2.3
2019-01-14T12:16:56.552Z,2.4
2019-01-14T12:17:46.320Z,2.4
2019-01-14T12:18:36.672Z,2.4
2019-01-14T12:19:27.012Z,2.4
2019-01-14T12:20:16.502Z,2.6
2019-01-14T12:21:06.850Z,2.6
2019-01-14T12:21:56.619Z,2.5
2019-01-14T12:22:47.004Z,2.4
2019-01-14T12:23:36.721Z,2.4
2019-01-14T12:24:27.342Z,2.4
2019-01-14T12:25:16.861Z,2.3
2019-01-14T12:26:07.436Z,2.3
2019-01-14T12:26:57.231Z,2.3
2019-01-14T12:27:47.301Z,2.2
2019-01-14T12:28:37.328Z,2.1
2019-01-14T12:29:27.403Z,2.1
2019-01-14T12:30:17.729Z,2.1
2019-01-14T12:31:07.788Z,2.1
2019-01-14T12:31:57.551Z,2.1
2019-01-14T12:32:47.328Z,2.1
2019-01-14T12:33:37.393Z,1.9
2019-01-14T12:34:28.005Z,1.9
2019-01-14T12:35:17.034Z,1.9
2019-01-14T12:36:07.853Z,1.9
2019-01-14T12:36:58.173Z,1.9
2019-01-14T12:37:47.946Z,1.9
2019-01-14T12:38:38.273Z,1.9